Time;durP1;ratioP1;P1;durP2;ratioP2;P2;SDS_P1;SDS_P2;PMS_P1;PMS_P2;Temp;Humidity;BMP_temperature;BMP_pressure;BME280_temperature;BME280_humidity;BME280_pressure;Samples;Min_cycle;Max_cycle;Signal;HPM_P1;HPM_P2
2022/03/30 00:01:11;;;;;;;28.42;15.85;;;10.10;70.40;;;9.12;58.22;96125.38;5010261;28;20476;-71
2022/03/30 00:03:37;;;;;;;26.83;14.52;;;10.20;70.20;;;9.16;57.81;96134.34;5010885;28;20413;-70
2022/03/30 00:06:04;;;;;;;29.80;16.63;;;10.10;69.90;;;9.29;58.48;96122.38;5010848;28;20405;-70
2022/03/30 00:08:31;;;;;;;29.13;16.85;;;10.30;70.40;;;9.36;58.51;96130.00;5010865;28;20759;-70
2022/03/30 00:10:57;;;;;;;33.47;17.77;;;10.30;70.30;;;9.42;58.44;96128.91;5010258;28;20401;-69
2022/03/30 00:13:23;;;;;;;35.15;18.33;;;10.40;70.50;;;9.39;58.89;96127.59;5010110;28;20396;-70
2022/03/30 00:15:50;;;;;;;27.03;16.27;;;10.30;70.80;;;9.39;58.31;96132.88;5010635;28;20413;-70
2022/03/30 00:18:16;;;;;;;30.63;16.20;;;10.40;70.60;;;9.49;58.06;96124.09;5010613;28;20416;-70
2022/03/30 00:20:42;;;;;;;26.63;14.88;;;10.40;70.40;;;9.50;57.83;96125.69;5010091;28;20405;-70
2022/03/30 00:23:09;;;;;;;24.48;14.23;;;10.50;70.20;;;9.55;57.74;96125.63;5010694;28;20920;-69
2022/03/30 00:25:35;;;;;;;25.30;13.43;;;10.50;70.00;;;9.59;57.88;96122.19;5010811;28;20802;-69
2022/03/30 00:28:02;;;;;;;25.00;13.83;;;10.60;70.10;;;9.62;58.12;96116.34;5010751;28;20408;-70
2022/03/30 00:30:29;;;;;;;33.88;17.23;;;10.60;70.20;;;9.66;58.83;96119.22;5007297;28;20405;-70
2022/03/30 00:32:55;;;;;;;38.95;18.13;;;10.60;70.70;;;9.63;58.65;96115.28;5005596;28;20405;-70
2022/03/30 00:35:21;;;;;;;28.25;15.73;;;10.60;70.90;;;9.63;58.54;96122.41;5010367;28;20883;-70
2022/03/30 00:37:47;;;;;;;26.80;13.60;;;10.60;70.90;;;9.64;58.44;96124.78;5010422;28;20947;-69
2022/03/30 00:40:16;;;;;;;23.45;12.98;;;10.60;70.70;;;9.65;58.77;96113.16;5009977;28;20408;-69
2022/03/30 00:42:43;;;;;;;30.60;16.80;;;10.60;70.80;;;9.72;58.83;96112.84;5010645;28;20890;-69
2022/03/30 00:45:12;;;;;;;27.60;15.57;;;10.70;71.20;;;9.70;58.72;96114.94;5010339;28;21028;-69
2022/03/30 00:47:39;;;;;;;21.98;12.93;;;10.70;71.20;;;9.71;58.68;96112.03;5010338;28;20404;-70
2022/03/30 00:50:08;;;;;;;24.30;13.98;;;10.70;71.10;;;9.75;58.75;96108.84;5011095;28;20914;-69
2022/03/30 00:52:34;;;;;;;30.67;15.55;;;10.70;71.10;;;9.79;58.25;96113.31;5009887;28;20431;-69
2022/03/30 00:55:00;;;;;;;27.40;14.77;;;10.70;70.80;;;9.74;59.01;96110.72;5010412;28;20413;-69
2022/03/30 00:57:29;;;;;;;41.22;16.45;;;10.70;71.40;;;9.77;57.76;96117.31;5010334;28;20892;-69
2022/03/30 00:59:57;;;;;;;28.02;16.58;;;10.70;70.10;;;9.80;57.08;96120.16;5010082;28;20452;-70
2022/03/30 01:02:23;;;;;;;25.30;14.60;;;10.80;69.40;;;9.85;57.64;96116.72;5010012;28;20432;-70
2022/03/30 01:04:50;;;;;;;31.75;17.65;;;10.80;70.00;;;9.91;58.04;96119.03;5010339;28;20405;-69
2022/03/30 01:07:16;;;;;;;36.85;18.25;;;10.90;71.40;;;9.95;57.91;96114.75;5010284;28;20480;-69
2022/03/30 01:09:43;;;;;;;27.85;15.45;;;10.90;70.40;;;9.96;58.01;96111.06;5010005;28;20814;-69
2022/03/30 01:12:10;;;;;;;24.17;13.85;;;10.90;70.50;;;9.98;57.84;96108.13;5009881;28;20392;-69
2022/03/30 01:14:38;;;;;;;30.77;15.88;;;10.90;70.60;;;9.97;58.45;96102.06;5010180;28;20401;-69
2022/03/30 01:17:05;;;;;;;29.20;15.90;;;10.90;70.80;;;9.97;57.85;96101.28;5010145;28;20416;-69
2022/03/30 01:19:34;;;;;;;25.08;14.27;;;10.90;70.30;;;9.97;57.78;96095.97;5004903;28;20429;-70
2022/03/30 01:22:01;;;;;;;32.40;15.40;;;10.90;70.20;;;9.98;57.50;96105.50;5009530;28;20405;-69
2022/03/30 01:24:28;;;;;;;30.92;15.95;;;10.90;70.00;;;9.86;57.39;96097.91;5011895;28;20482;-70
2022/03/30 01:26:54;;;;;;;39.53;17.13;;;10.80;69.60;;;9.79;57.67;96091.38;5013575;28;20490;-69
2022/03/30 01:34:51;;;;;;;34.38;16.48;;;10.80;69.70;;;9.79;57.56;96081.59;5013435;28;20396;-70
2022/03/30 01:37:19;;;;;;;31.75;16.10;;;10.70;70.10;;;9.84;57.54;96086.84;5013427;28;20404;-69
2022/03/30 01:39:45;;;;;;;28.77;14.52;;;10.80;70.00;;;9.85;57.46;96069.13;5013297;28;20450;-69
2022/03/30 01:42:11;;;;;;;19.98;13.00;;;10.80;69.80;;;9.88;57.33;96074.66;5013107;28;20898;-70
2022/03/30 01:44:38;;;;;;;31.85;14.43;;;10.80;69.70;;;9.92;57.44;96077.53;5013416;28;20411;-69
2022/03/30 01:47:06;;;;;;;33.83;16.35;;;10.90;69.80;;;9.84;57.59;96067.56;5013177;28;20405;-70
2022/03/30 01:49:32;;;;;;;30.43;15.60;;;10.80;69.80;;;9.85;57.44;96061.97;5013100;28;20408;-70
2022/03/30 01:51:59;;;;;;;29.05;15.52;;;10.80;69.80;;;9.90;57.49;96071.72;5012849;28;20407;-69
2022/03/30 01:54:27;;;;;;;33.58;16.98;;;10.80;69.70;;;9.92;56.67;96066.97;5013213;28;20561;-69
2022/03/30 01:56:55;;;;;;;28.58;16.20;;;10.80;69.20;;;9.90;56.78;96059.31;5013163;28;20408;-69
2022/03/30 01:59:22;;;;;;;26.85;14.93;;;10.90;69.00;;;9.94;56.64;96052.38;5012706;28;20429;-69
2022/03/30 02:01:48;;;;;;;26.90;14.50;;;10.90;68.80;;;9.94;56.48;96052.38;5012683;28;20423;-69
2022/03/30 02:04:14;;;;;;;26.17;14.05;;;10.90;68.70;;;9.94;56.78;96041.00;5013105;28;20778;-69
2022/03/30 02:06:41;;;;;;;23.35;13.27;;;10.90;68.90;;;9.93;56.96;96039.44;5008743;28;20414;-69
2022/03/30 02:09:08;;;;;;;26.45;14.95;;;10.90;69.10;;;9.93;57.05;96032.28;5010860;28;20441;-70
2022/03/30 02:11:36;;;;;;;21.90;12.73;;;10.90;69.30;;;9.93;57.15;96023.56;5011304;28;20396;-69
2022/03/30 02:14:01;;;;;;;25.48;12.57;;;10.90;69.30;;;9.94;57.03;96025.16;5012976;28;20411;-69
2022/03/30 02:16:28;;;;;;;18.90;12.17;;;10.90;69.30;;;9.92;57.10;96017.50;5012975;28;20483;-70
2022/03/30 02:18:54;;;;;;;22.33;12.77;;;10.90;69.30;;;9.93;57.34;96013.00;5013192;28;20413;-69
2022/03/30 02:21:24;;;;;;;28.93;15.13;;;10.90;69.60;;;9.90;57.66;96003.00;5011991;28;21355;-69
2022/03/30 02:23:51;;;;;;;26.42;14.25;;;10.90;69.90;;;9.87;57.35;96014.91;5012979;28;20459;-70
2022/03/30 02:26:18;;;;;;;34.65;16.50;;;10.80;69.80;;;9.81;58.99;96007.31;5012614;28;20617;-70
2022/03/30 02:28:52;;;;;;;33.95;16.73;;;10.80;71.20;;;9.79;58.80;96007.59;5012590;28;20433;-70
2022/03/30 02:31:19;;;;;;;33.47;17.02;;;10.70;71.20;;;9.72;58.78;96001.84;5010761;28;20778;-69
2022/03/30 02:33:45;;;;;;;32.65;16.80;;;10.70;71.30;;;9.62;58.84;96002.72;5012382;28;20401;-71
2022/03/30 02:36:11;;;;;;;26.70;15.15;;;10.50;71.50;;;9.56;58.78;95995.13;5011625;28;20878;-70
2022/03/30 02:38:37;;;;;;;27.08;15.88;;;10.60;71.60;;;9.51;59.02;95995.97;5012242;28;20420;-71
2022/03/30 02:41:05;;;;;;;35.92;16.60;;;10.50;71.70;;;9.48;59.64;95995.72;5011524;28;20409;-71
2022/03/30 02:43:31;;;;;;;25.73;14.18;;;10.40;72.50;;;9.46;59.30;95995.25;5012435;28;20409;-71
2022/03/30 02:45:59;;;;;;;39.83;16.95;;;10.40;72.10;;;9.41;60.09;95996.06;5012411;28;20404;-70
2022/03/30 02:48:28;;;;;;;25.08;14.63;;;10.40;72.60;;;9.36;59.64;95984.75;5012179;28;20408;-71
2022/03/30 02:50:57;;;;;;;27.92;14.70;;;10.30;72.70;;;9.38;59.64;95991.34;5011751;28;20440;-71
2022/03/30 02:53:24;;;;;;;30.77;13.98;;;10.40;73.50;;;9.41;59.35;95985.50;5012122;28;20409;-71
2022/03/30 02:55:51;;;;;;;28.65;13.43;;;10.40;72.40;;;9.41;59.16;95985.50;5009863;28;20503;-70
2022/03/30 02:58:19;;;;;;;29.83;13.75;;;10.40;72.30;;;9.42;59.07;95976.50;5011882;28;20420;-71
2022/03/30 03:00:45;;;;;;;22.48;12.32;;;10.40;72.10;;;9.43;59.06;95980.72;5011256;28;20404;-71
2022/03/30 03:03:12;;;;;;;22.93;13.20;;;10.40;72.00;;;9.44;59.03;95977.03;5011941;28;20945;-71
2022/03/30 03:05:41;;;;;;;22.63;11.95;;;10.40;72.10;;;9.46;59.15;95977.53;5011989;28;20463;-71
2022/03/30 03:08:09;;;;;;;21.85;11.38;;;10.50;72.00;;;9.46;58.96;95969.63;5011726;28;20412;-71
2022/03/30 03:10:37;;;;;;;35.35;13.40;;;10.50;72.00;;;9.50;59.05;95975.13;5011222;28;20487;-71
2022/03/30 03:13:04;;;;;;;31.80;13.98;;;10.50;72.10;;;9.48;59.53;95971.97;5010471;28;20505;-71
2022/03/30 03:15:31;;;;;;;23.85;12.50;;;10.50;73.30;;;9.46;59.06;95963.53;5011825;28;20765;-71
2022/03/30 03:17:58;;;;;;;25.37;12.53;;;10.40;72.30;;;9.46;59.34;95963.53;5011778;28;20411;-71
2022/03/30 03:20:25;;;;;;;19.10;10.93;;;10.40;72.50;;;9.44;59.35;95957.75;5009817;28;20462;-71
2022/03/30 03:22:51;;;;;;;22.70;11.30;;;10.40;72.40;;;9.45;59.46;95961.97;5011719;28;20400;-71
2022/03/30 03:25:17;;;;;;;21.52;11.13;;;10.40;72.50;;;9.45;59.48;95959.31;5011719;28;20756;-71
2022/03/30 03:27:43;;;;;;;26.73;14.70;;;10.40;72.70;;;9.52;59.57;95959.78;5011632;28;20408;-71
2022/03/30 03:30:11;;;;;;;31.07;15.70;;;10.50;72.90;;;9.36;60.04;95963.63;5010867;28;20474;-71
2022/03/30 03:32:37;;;;;;;30.30;14.50;;;10.40;72.90;;;9.37;60.20;95963.34;5011400;28;20500;-71
2022/03/30 03:35:04;;;;;;;37.95;15.95;;;10.30;73.40;;;9.32;58.84;95958.13;5011296;28;21053;-71
2022/03/30 03:37:31;;;;;;;38.05;16.20;;;10.30;72.40;;;9.42;57.78;95957.22;5011421;28;20405;-70
2022/03/30 03:39:57;;;;;;;27.02;14.95;;;10.30;70.80;;;9.47;57.92;95952.69;5010962;28;20502;-69
2022/03/30 03:42:23;;;;;;;27.07;13.13;;;10.40;70.90;;;9.54;57.64;95953.16;5015341;23;20517;-73
2022/03/30 03:44:49;;;;;;;26.70;13.40;;;10.50;70.60;;;9.59;58.11;95953.09;5009113;28;20492;-73
2022/03/30 03:47:15;;;;;;;31.55;14.70;;;10.50;71.00;;;9.55;59.27;95953.94;5010414;28;20428;-72
2022/03/30 03:49:41;;;;;;;29.17;13.48;;;10.50;71.50;;;9.58;58.30;95961.31;5011479;28;20415;-72
2022/03/30 03:52:07;;;;;;;37.13;16.60;;;10.50;71.40;;;9.56;57.10;95952.88;5010603;28;20420;-72
2022/03/30 03:54:34;;;;;;;30.30;15.48;;;10.50;70.30;;;9.59;57.26;95950.47;5011210;28;20499;-72
2022/03/30 03:57:01;;;;;;;39.33;16.95;;;10.50;70.20;;;9.57;57.12;95951.81;5010898;28;20401;-72
2022/03/30 03:59:26;;;;;;;31.13;15.70;;;10.50;69.90;;;9.60;57.55;95945.97;5010885;28;20416;-72
2022/03/30 04:01:52;;;;;;;37.95;15.85;;;10.50;70.10;;;9.60;56.95;95953.91;5009722;28;20435;-72
2022/03/30 04:04:19;;;;;;;30.33;15.55;;;10.50;69.70;;;9.60;57.55;95949.41;5009466;28;20890;-72
2022/03/30 04:06:45;;;;;;;35.83;15.97;;;10.60;70.20;;;9.52;58.48;95949.22;5007212;28;20409;-72
2022/03/30 04:09:11;;;;;;;29.08;14.93;;;10.50;70.60;;;9.57;57.63;95942.03;5010633;28;20454;-71
2022/03/30 04:11:38;;;;;;;38.93;17.60;;;10.50;70.50;;;9.61;57.53;95952.84;5009169;28;20462;-72
2022/03/30 04:14:04;;;;;;;34.50;16.20;;;10.50;70.00;;;9.58;58.37;95948.09;5010820;28;20535;-72
2022/03/30 04:16:30;;;;;;;37.55;16.73;;;10.50;71.00;;;9.56;57.77;95947.59;5010956;28;20955;-74
2022/03/30 04:18:56;;;;;;;39.55;17.90;;;10.50;70.60;;;9.57;58.14;95944.66;5010783;28;20428;-72
2022/03/30 04:21:22;;;;;;;43.67;18.00;;;10.50;70.90;;;9.53;57.89;95950.81;5009364;28;20421;-72
2022/03/30 04:23:48;;;;;;;42.33;17.73;;;10.40;70.60;;;9.49;58.10;95947.91;5007013;28;20421;-71
2022/03/30 04:26:14;;;;;;;36.73;18.10;;;10.40;71.00;;;9.56;59.73;95950.22;5010499;28;20492;-72
2022/03/30 04:28:42;;;;;;;34.17;16.08;;;10.50;72.80;;;9.57;60.29;95942.03;5010526;28;20414;-71
2022/03/30 04:31:08;;;;;;;34.87;16.23;;;10.50;73.60;;;9.54;62.35;95945.25;5010107;28;20431;-71
2022/03/30 04:33:34;;;;;;;37.58;15.98;;;10.50;75.50;;;9.50;63.42;95952.13;5010815;28;20412;-71
2022/03/30 04:36:00;;;;;;;33.50;16.63;;;10.40;76.90;;;9.42;63.53;95944.81;5010643;28;20456;-72
2022/03/30 04:38:26;;;;;;;38.40;17.65;;;10.40;77.60;;;9.29;65.74;95948.91;5009383;28;20420;-71
2022/03/30 04:40:52;;;;;;;46.33;19.70;;;10.30;80.00;;;9.23;68.10;95941.31;5010055;28;20408;-71
2022/03/30 04:43:18;;;;;;;36.88;18.08;;;10.10;83.20;;;9.08;69.52;95950.13;5010621;28;20409;-72
2022/03/30 04:45:45;;;;;;;52.22;19.05;;;10.10;85.10;;;8.92;72.75;95944.19;5010649;28;20405;-71
2022/03/30 04:48:11;;;;;;;44.22;20.27;;;9.90;88.70;;;8.79;75.84;95950.09;5010215;28;20401;-72
2022/03/30 04:50:37;;;;;;;52.47;21.42;;;9.80;91.10;;;8.68;77.99;95943.28;5009901;28;20511;-71
2022/03/30 04:53:03;;;;;;;44.03;21.27;;;9.70;92.80;;;8.59;80.48;95944.91;5010506;28;20408;-71
2022/03/30 04:55:29;;;;;;;47.25;22.23;;;9.60;94.50;;;8.46;80.94;95954.22;5010425;28;20968;-70
2022/03/30 04:57:55;;;;;;;48.72;21.70;;;9.40;95.50;;;8.42;82.25;95950.56;5010247;28;20409;-70
2022/03/30 05:00:21;;;;;;;62.03;25.25;;;9.40;96.70;;;8.41;84.11;95953.47;5013000;28;20413;-70
2022/03/30 05:02:49;;;;;;;65.17;26.83;;;9.40;98.20;;;8.44;84.92;95947.66;5014276;28;20400;-71
2022/03/30 05:05:15;;;;;;;69.97;32.33;;;9.40;98.90;;;8.27;86.73;95957.75;5014056;28;20861;-70
2022/03/30 05:07:41;;;;;;;84.47;34.65;;;9.30;99.70;;;8.22;87.97;95948.00;5013987;28;20471;-69
2022/03/30 05:10:11;;;;;;;117.07;41.40;;;9.20;99.90;;;8.21;89.04;95948.25;5013831;28;20405;-70
2022/03/30 05:12:37;;;;;;;120.82;44.65;;;9.20;99.90;;;8.11;89.57;95957.81;5014028;28;20404;-69
2022/03/30 05:15:03;;;;;;;129.95;48.17;;;9.10;99.90;;;8.11;90.57;95959.66;5007832;28;20410;-70
2022/03/30 05:17:29;;;;;;;163.67;51.40;;;9.10;99.90;;;8.12;91.20;95948.03;5013514;28;20401;-69
2022/03/30 05:19:56;;;;;;;169.07;54.03;;;9.10;99.90;;;7.91;91.63;95944.69;5013990;28;20447;-70
2022/03/30 05:22:22;;;;;;;174.37;56.87;;;8.90;99.90;;;7.87;91.79;95943.66;5013456;28;20456;-71
2022/03/30 05:24:48;;;;;;;180.43;58.00;;;8.90;99.90;;;7.96;92.17;95941.25;5013786;28;20409;-71
2022/03/30 05:27:14;;;;;;;139.88;51.38;;;8.90;99.90;;;7.94;92.59;95946.00;5012302;28;20494;-70
2022/03/30 05:29:40;;;;;;;185.17;59.27;;;9.00;99.90;;;8.02;93.08;95943.59;5013826;28;20883;-71
2022/03/30 05:32:07;;;;;;;201.85;63.72;;;9.00;99.90;;;7.99;93.59;95938.06;5013371;28;20809;-70
2022/03/30 05:34:33;;;;;;;167.73;58.05;;;9.10;99.90;;;8.01;94.02;95941.25;5011824;28;20921;-73
2022/03/30 05:37:00;;;;;;;182.02;61.25;;;9.10;99.90;;;7.99;94.09;95940.72;5013546;28;20882;-73
2022/03/30 05:39:26;;;;;;;176.03;58.70;;;9.00;99.90;;;7.96;94.47;95936.78;5013663;28;20409;-72
2022/03/30 05:41:52;;;;;;;202.50;62.92;;;9.00;99.90;;;7.88;94.54;95942.59;5013460;28;20431;-72
2022/03/30 05:44:18;;;;;;;207.48;64.32;;;8.90;99.90;;;7.76;94.77;95937.63;5013642;28;20882;-72
2022/03/30 05:46:44;;;;;;;188.65;61.47;;;8.80;99.90;;;7.77;94.80;95936.56;5013512;28;20499;-71
2022/03/30 05:49:10;;;;;;;184.88;61.30;;;8.80;99.90;;;7.77;94.83;95935.78;5013394;28;20483;-71
2022/03/30 05:51:36;;;;;;;164.57;54.90;;;8.80;99.90;;;7.89;94.85;95938.13;5011746;28;20833;-72
2022/03/30 05:54:05;;;;;;;192.63;61.45;;;8.90;99.90;;;7.84;95.08;95932.84;5013278;28;20401;-71
2022/03/30 05:59:15;;;;;;;164.68;57.13;;;8.90;99.90;;;7.92;95.33;95935.72;5012980;28;20432;-71
2022/03/30 06:01:41;;;;;;;180.63;60.50;;;8.90;99.90;;;7.88;95.52;95939.97;5012563;28;20400;-71
2022/03/30 06:04:07;;;;;;;167.50;55.78;;;8.90;99.90;;;7.91;95.59;95942.06;5013232;28;21342;-72
2022/03/30 06:06:34;;;;;;;151.65;55.22;;;8.90;99.90;;;7.92;95.87;95933.09;5013089;28;20408;-72
2022/03/30 06:09:03;;;;;;;181.15;60.45;;;8.90;99.90;;;7.94;95.78;95935.47;5013028;28;20405;-71
2022/03/30 06:11:31;;;;;;;171.67;58.83;;;8.90;99.90;;;7.98;96.08;95933.84;5011412;28;20447;-72
2022/03/30 06:13:58;;;;;;;191.98;61.70;;;8.90;99.90;;;7.88;96.05;95937.34;5012972;28;20732;-71
2022/03/30 06:16:24;;;;;;;151.32;55.15;;;8.90;99.90;;;7.91;96.11;95931.50;5012796;28;20419;-72
2022/03/30 06:18:50;;;;;;;161.00;56.72;;;8.90;99.90;;;7.95;96.24;95927.31;5012629;28;20420;-73
2022/03/30 06:21:17;;;;;;;159.57;57.75;;;9.00;99.90;;;7.97;96.28;95927.81;5012227;28;20409;-72
2022/03/30 06:23:43;;;;;;;169.82;58.17;;;9.00;99.90;;;7.99;96.30;95927.53;5012802;28;20495;-75
2022/03/30 06:26:09;;;;;;;178.23;60.35;;;9.00;99.90;;;7.97;96.42;95927.03;5012713;28;20404;-74
2022/03/30 06:28:36;;;;;;;189.90;63.13;;;9.00;99.90;;;7.93;96.62;95921.50;5012547;28;20393;-74
2022/03/30 06:31:03;;;;;;;163.88;57.90;;;8.90;99.90;;;7.97;96.49;95924.41;5011960;28;20481;-74
2022/03/30 06:33:29;;;;;;;159.88;56.35;;;9.00;99.90;;;7.95;96.82;95924.66;5012489;28;20824;-74
2022/03/30 06:35:56;;;;;;;158.95;54.45;;;9.00;99.90;;;7.98;96.92;95921.47;5012419;28;20401;-74
2022/03/30 06:38:22;;;;;;;169.32;57.38;;;9.00;99.90;;;8.09;96.73;95914.31;5012359;28;20401;-72
2022/03/30 06:40:48;;;;;;;186.93;63.60;;;9.10;99.90;;;8.08;96.81;95912.75;5011611;28;20409;-72
2022/03/30 06:43:14;;;;;;;182.75;62.65;;;9.10;99.90;;;8.03;96.91;95928.59;5012355;28;20893;-74
2022/03/30 06:45:43;;;;;;;182.93;60.70;;;9.10;99.90;;;8.08;96.92;95913.53;5012363;28;20444;-72
2022/03/30 06:48:10;;;;;;;199.52;69.13;;;9.10;99.90;;;8.00;96.98;95914.09;5012328;28;20930;-73
2022/03/30 06:50:35;;;;;;;184.48;63.67;;;9.00;99.90;;;7.92;97.02;95911.22;5011614;28;20416;-73
2022/03/30 06:53:03;;;;;;;191.00;62.75;;;8.90;99.90;;;7.94;97.03;95904.63;5012145;28;20821;-72
2022/03/30 06:55:29;;;;;;;166.50;59.57;;;8.90;99.90;;;8.00;97.10;95908.81;5012021;28;20417;-73
2022/03/30 06:57:54;;;;;;;177.68;61.95;;;9.00;99.90;;;8.11;97.06;95901.69;5010494;28;20413;-72
2022/03/30 07:00:20;;;;;;;231.02;72.13;;;9.10;99.90;;;8.15;97.17;95898.22;5002340;28;20496;-72
2022/03/30 07:02:48;;;;;;;199.23;66.82;;;9.20;99.90;;;8.24;97.53;95900.28;5011447;28;20459;-72
2022/03/30 07:05:14;;;;;;;206.90;67.15;;;9.20;99.90;;;8.28;97.57;95898.66;4996276;28;20406;-72
2022/03/30 07:10:27;;;;;;;225.55;71.70;;;9.20;99.90;;;7.98;97.45;95904.88;5011131;28;25105;-72
2022/03/30 07:12:53;;;;;;;219.52;69.70;;;9.00;99.90;;;8.07;97.72;95895.34;5011997;28;20427;-73
2022/03/30 07:15:20;;;;;;;206.90;68.93;;;9.10;99.90;;;8.08;97.79;95895.09;5009167;28;20416;-71
2022/03/30 07:17:50;;;;;;;175.18;63.53;;;9.10;99.90;;;8.20;97.80;95886.84;5011002;28;20972;-72
2022/03/30 07:20:17;;;;;;;155.93;56.80;;;9.10;99.90;;;8.34;97.90;95890.50;5005976;28;20405;-71
2022/03/30 07:22:43;;;;;;;158.57;57.80;;;9.30;99.90;;;8.57;98.00;95886.38;5008402;28;20416;-71
2022/03/30 07:25:10;;;;;;;141.02;52.92;;;9.50;99.90;;;8.74;98.04;95883.34;5009610;28;20492;-70
2022/03/30 07:27:39;;;;;;;135.90;50.67;;;9.60;99.90;;;8.86;98.61;95876.69;5010869;28;20451;-71
2022/03/30 07:30:07;;;;;;;164.68;57.53;;;9.80;99.90;;;8.98;98.72;95878.94;5004942;28;20448;-71
2022/03/30 07:32:34;;;;;;;204.80;65.20;;;9.90;99.90;;;9.05;98.94;95881.25;5009689;28;20433;-72
2022/03/30 07:35:02;;;;;;;181.13;59.57;;;10.00;99.90;;;9.00;99.21;95881.31;5008233;28;20417;-72
2022/03/30 07:37:28;;;;;;;208.13;65.95;;;9.90;99.90;;;8.92;99.34;95880.84;5007987;28;20420;-73
2022/03/30 07:39:54;;;;;;;168.38;56.42;;;9.90;99.90;;;9.00;99.40;95878.69;5009342;28;20412;-72
2022/03/30 07:42:20;;;;;;;231.77;68.53;;;10.00;99.90;;;8.99;99.63;95880.53;5004943;28;20424;-71
2022/03/30 07:44:46;;;;;;;191.85;60.83;;;9.90;99.90;;;8.95;99.67;95878.72;5008417;28;20437;-71
2022/03/30 07:47:12;;;;;;;172.70;56.30;;;9.90;99.90;;;8.93;99.50;95877.16;5015788;28;20766;-72
2022/03/30 07:49:38;;;;;;;145.73;51.75;;;9.90;99.90;;;9.00;99.84;95874.19;5008933;28;20405;-71
2022/03/30 07:52:06;;;;;;;153.27;53.30;;;9.90;99.90;;;9.06;99.84;95880.19;5012895;28;21007;-70
2022/03/30 07:54:32;;;;;;;175.98;57.25;;;10.00;99.90;;;9.06;100.00;95877.56;5007701;28;20558;-71
2022/03/30 07:56:58;;;;;;;164.73;55.43;;;10.00;99.90;;;8.88;100.00;95871.91;5013964;28;20399;-71
2022/03/30 07:59:23;;;;;;;181.23;56.15;;;9.90;99.90;;;8.86;100.00;95871.41;5010718;28;20511;-72
2022/03/30 08:01:49;;;;;;;178.20;56.20;;;9.80;99.90;;;8.93;99.93;95874.50;5005364;28;20409;-72
2022/03/30 08:04:15;;;;;;;170.37;54.37;;;9.80;99.90;;;8.96;100.00;95877.63;5012887;28;20413;-72
2022/03/30 08:06:41;;;;;;;139.60;50.08;;;9.90;99.90;;;8.98;100.00;95870.25;5004427;28;20497;-72
2022/03/30 08:09:09;;;;;;;134.85;47.08;;;9.90;99.90;;;9.01;100.00;95870.50;5015560;28;20781;-72
2022/03/30 08:11:35;;;;;;;139.10;48.47;;;9.90;99.90;;;9.08;100.00;95873.59;5009489;28;20415;-71
2022/03/30 08:14:00;;;;;;;132.80;46.63;;;10.00;99.90;;;9.09;100.00;95877.81;5018088;28;20426;-71
2022/03/30 08:16:26;;;;;;;115.07;43.65;;;10.00;99.90;;;9.08;100.00;95876.22;5023417;28;20792;-71
2022/03/30 08:18:52;;;;;;;155.10;48.85;;;10.00;99.90;;;9.13;100.00;95878.03;5030027;28;20450;-71
2022/03/30 08:24:04;;;;;;;158.63;51.50;;;9.90;99.90;;;8.94;100.00;95880.56;5000288;28;20416;-73
2022/03/30 08:26:31;;;;;;;142.75;47.58;;;9.90;99.90;;;8.93;100.00;95879.00;5006577;28;20413;-72
2022/03/30 08:28:57;;;;;;;171.35;54.47;;;9.90;99.90;;;8.88;100.00;95877.16;5008597;28;20409;-72
2022/03/30 08:31:23;;;;;;;153.75;53.78;;;9.80;99.90;;;8.43;100.00;95874.88;5007001;28;20416;-72
2022/03/30 08:33:49;;;;;;;170.82;51.38;;;9.50;99.90;;;8.37;100.00;95875.97;5010046;28;20417;-73
2022/03/30 08:36:16;;;;;;;150.27;50.83;;;9.40;99.90;;;8.29;100.00;95874.66;5010556;28;20451;-72
2022/03/30 08:38:42;;;;;;;159.80;53.17;;;9.30;99.90;;;8.28;100.00;95878.38;5010032;28;20993;-72
2022/03/30 08:41:09;;;;;;;191.40;57.78;;;9.30;99.90;;;8.57;100.00;95880.34;5007223;28;20406;-72
2022/03/30 08:43:39;;;;;;;173.25;54.95;;;9.50;99.90;;;8.65;100.00;95877.09;5005857;28;20927;-72
2022/03/30 08:46:05;;;;;;;148.27;52.13;;;9.60;99.90;;;8.73;100.00;95881.78;5006300;28;20768;-70
2022/03/30 08:48:31;;;;;;;180.13;56.95;;;9.60;99.90;;;8.54;100.00;95881.66;5005720;28;20414;-71
2022/03/30 08:50:58;;;;;;;165.05;51.88;;;9.50;99.90;;;8.64;100.00;95888.72;5006373;28;20432;-71
2022/03/30 08:53:26;;;;;;;166.55;54.35;;;9.60;99.90;;;8.62;100.00;95886.38;5004958;28;20398;-71
2022/03/30 08:55:52;;;;;;;163.02;55.60;;;9.60;99.90;;;8.53;100.00;95888.00;5007758;28;20496;-71
2022/03/30 08:58:19;;;;;;;168.52;55.38;;;9.60;99.90;;;8.49;100.00;95882.47;5006434;28;20430;-73
2022/03/30 09:00:46;;;;;;;157.32;53.60;;;9.50;99.90;;;8.44;100.00;95881.72;5005207;28;20634;-74
2022/03/30 09:03:15;;;;;;;148.15;53.35;;;9.40;99.90;;;8.35;100.00;95886.00;5007270;28;20892;-68
2022/03/30 09:05:41;;;;;;;134.10;49.03;;;9.30;99.90;;;8.53;100.00;95874.81;5003091;28;20780;-70
2022/03/30 09:08:14;;;;;;;153.43;50.45;;;9.40;99.90;;;8.54;100.00;95879.81;5008264;28;20420;-68
2022/03/30 09:10:43;;;;;;;156.95;52.72;;;9.60;99.90;;;8.72;100.00;95883.63;5004046;28;25088;-69
2022/03/30 09:13:11;;;;;;;174.40;54.92;;;9.70;99.90;;;8.66;100.00;95878.66;5006827;28;20414;-72
2022/03/30 09:15:38;;;;;;;163.27;53.30;;;9.60;99.90;;;8.67;100.00;95875.75;5007304;28;20448;-73
2022/03/30 09:18:09;;;;;;;153.63;52.30;;;9.60;99.90;;;8.50;100.00;95875.34;5005525;28;20390;-71
2022/03/30 09:20:39;;;;;;;151.60;50.83;;;9.50;99.90;;;8.56;100.00;95876.13;5003586;28;20425;-70
2022/03/30 09:23:06;;;;;;;160.50;52.05;;;9.50;99.90;;;8.53;100.00;95874.81;5005711;28;20393;-70
2022/03/30 09:25:34;;;;;;;143.48;50.13;;;9.50;99.90;;;8.52;100.00;95871.38;5007322;28;20469;-72
2022/03/30 09:28:01;;;;;;;158.65;51.10;;;9.50;99.90;;;8.57;100.00;95872.44;5004348;28;20441;-71
2022/03/30 09:30:29;;;;;;;121.75;46.58;;;9.50;99.90;;;8.58;100.00;95866.84;5019922;28;20509;-72
2022/03/30 09:32:57;;;;;;;140.53;49.37;;;9.50;99.90;;;8.74;100.00;95864.91;5007142;28;20415;-71
2022/03/30 09:35:28;;;;;;;165.52;54.53;;;9.60;99.90;;;8.76;100.00;95865.41;5006722;28;20402;-72
2022/03/30 09:38:16;;;;;;;134.52;47.67;;;9.70;99.90;;;8.76;100.00;95862.78;5005487;28;20438;-71
2022/03/30 09:40:45;;;;;;;136.40;49.80;;;9.70;99.90;;;8.81;100.00;95862.72;5001370;28;20804;-68
2022/03/30 09:43:17;;;;;;;127.75;47.28;;;9.80;99.90;;;8.86;100.00;95862.69;5011894;22;20893;-73
2022/03/30 09:45:44;;;;;;;153.70;51.83;;;9.80;99.90;;;8.84;100.00;95862.19;4992749;28;20832;-73
2022/03/30 09:48:12;;;;;;;128.68;47.55;;;9.80;99.90;;;9.01;100.00;95862.56;4991537;28;20456;-75
2022/03/30 09:50:44;;;;;;;127.57;45.60;;;9.90;99.90;;;9.10;100.00;95860.88;4993026;28;20779;-75
2022/03/30 09:53:11;;;;;;;125.40;46.45;;;10.00;99.90;;;9.15;100.00;95855.56;4993295;28;20493;-75
2022/03/30 09:55:49;;;;;;;105.70;40.67;;;10.10;99.90;;;9.30;100.00;95854.63;4995750;28;20928;-74
2022/03/30 09:58:20;;;;;;;113.25;42.95;;;10.20;99.90;;;9.42;100.00;95843.66;5003238;28;20782;-74
2022/03/30 10:01:09;;;;;;;90.43;36.42;;;10.30;99.90;;;9.57;100.00;95849.56;4995237;28;20825;-75
2022/03/30 10:03:48;;;;;;;90.67;36.47;;;10.40;99.90;;;9.69;100.00;95847.34;4993449;28;20580;-75
2022/03/30 10:06:18;;;;;;;91.90;36.13;;;10.60;99.90;;;9.76;100.00;95846.97;4993470;28;20494;-75
2022/03/30 10:08:48;;;;;;;118.78;42.88;;;10.60;99.90;;;9.67;100.00;95846.81;4993345;28;20494;-75
2022/03/30 10:11:16;;;;;;;87.50;37.25;;;10.50;99.90;;;9.79;100.00;95838.47;4982628;28;20415;-74
2022/03/30 10:13:45;;;;;;;100.60;38.30;;;10.60;99.90;;;9.91;100.00;95838.06;4992544;28;20564;-74
2022/03/30 10:16:13;;;;;;;112.95;40.55;;;10.80;99.90;;;9.75;100.00;95839.34;4992376;28;20406;-74
2022/03/30 10:18:40;;;;;;;70.57;31.83;;;10.70;99.90;;;10.07;100.00;95834.94;4992552;28;20422;-73
2022/03/30 10:21:24;;;;;;;79.18;31.02;;;10.90;99.90;;;10.12;100.00;95831.44;4988345;28;21064;-74
2022/03/30 10:24:23;;;;;;;89.30;34.38;;;11.00;99.90;;;10.08;100.00;95828.56;4999679;28;20886;-73